sensor_id;sensor_type;location;lat;lon;timestamp;P1;durP1;ratioP1;P2;durP2;ratioP2
7585;SDS011;12459;42.646;23.292;2024-02-26T00:04:05;15.03;;;14.23;;
7585;SDS011;12459;42.646;23.292;2024-02-26T00:19:07;15.57;;;14.77;;
7585;SDS011;12459;42.646;23.292;2024-02-26T00:34:09;16.60;;;15.77;;
7585;SDS011;12459;42.646;23.292;2024-02-26T00:49:11;17.07;;;16.20;;
7585;SDS011;12459;42.646;23.292;2024-02-26T01:04:13;16.27;;;15.47;;
7585;SDS011;12459;42.646;23.292;2024-02-26T01:19:15;18.13;;;17.23;;
7585;SDS011;12459;42.646;23.292;2024-02-26T01:34:17;19.20;;;18.27;;
7585;SDS011;12459;42.646;23.292;2024-02-26T01:49:19;19.47;;;18.47;;
7585;SDS011;12459;42.646;23.292;2024-02-26T02:04:22;18.67;;;17.77;;
7585;SDS011;12459;42.646;23.292;2024-02-26T02:19:25;17.93;;;17.03;;
7585;SDS011;12459;42.646;23.292;2024-02-26T02:34:27;19.77;;;18.77;;
7585;SDS011;12459;42.646;23.292;2024-02-26T02:49:29;18.53;;;17.63;;
7585;SDS011;12459;42.646;23.292;2024-02-26T03:04:31;18.43;;;17.53;;
7585;SDS011;12459;42.646;23.292;2024-02-26T03:19:33;18.60;;;17.70;;
7585;SDS011;12459;42.646;23.292;2024-02-26T03:34:35;18.37;;;17.47;;
7585;SDS011;12459;42.646;23.292;2024-02-26T03:49:37;17.37;;;16.50;;
7585;SDS011;12459;42.646;23.292;2024-02-26T04:04:39;18.17;;;17.27;;
7585;SDS011;12459;42.646;23.292;2024-02-26T04:19:41;18.60;;;17.70;;
7585;SDS011;12459;42.646;23.292;2024-02-26T04:34:43;17.93;;;17.03;;
7585;SDS011;12459;42.646;23.292;2024-02-26T04:49:45;19.37;;;18.40;;
7585;SDS011;12459;42.646;23.292;2024-02-26T05:04:47;16.73;;;15.90;;
7585;SDS011;12459;42.646;23.292;2024-02-26T05:19:48;17.50;;;16.60;;
7585;SDS011;12459;42.646;23.292;2024-02-26T05:34:50;17.50;;;16.60;;
7585;SDS011;12459;42.646;23.292;2024-02-26T05:49:52;19.80;;;18.80;;
7585;SDS011;12459;42.646;23.292;2024-02-26T06:04:54;18.00;;;17.10;;
7585;SDS011;12459;42.646;23.292;2024-02-26T06:19:56;18.03;;;17.13;;
7585;SDS011;12459;42.646;23.292;2024-02-26T06:34:58;20.20;;;19.20;;
7585;SDS011;12459;42.646;23.292;2024-02-26T06:50:00;17.87;;;16.97;;
7585;SDS011;12459;42.646;23.292;2024-02-26T07:05:02;21.37;;;20.33;;
7585;SDS011;12459;42.646;23.292;2024-02-26T07:20:04;21.63;;;20.57;;
7585;SDS011;12459;42.646;23.292;2024-02-26T07:35:10;20.60;;;19.60;;
7585;SDS011;12459;42.646;23.292;2024-02-26T07:50:12;22.43;;;21.33;;
7585;SDS011;12459;42.646;23.292;2024-02-26T08:05:14;22.90;;;21.80;;
7585;SDS011;12459;42.646;23.292;2024-02-26T08:20:16;26.00;;;24.80;;
7585;SDS011;12459;42.646;23.292;2024-02-26T08:35:18;25.10;;;23.90;;
7585;SDS011;12459;42.646;23.292;2024-02-26T08:50:30;23.73;;;22.63;;
7585;SDS011;12459;42.646;23.292;2024-02-26T09:05:32;26.70;;;25.43;;
7585;SDS011;12459;42.646;23.292;2024-02-26T09:20:34;25.73;;;24.53;;
7585;SDS011;12459;42.646;23.292;2024-02-26T09:35:35;30.40;;;29.00;;
7585;SDS011;12459;42.646;23.292;2024-02-26T09:50:37;30.10;;;28.70;;
7585;SDS011;12459;42.646;23.292;2024-02-26T10:05:40;29.53;;;28.13;;
7585;SDS011;12459;42.646;23.292;2024-02-26T10:20:58;29.80;;;28.40;;
7585;SDS011;12459;42.646;23.292;2024-02-26T10:36:06;32.07;;;30.57;;
7585;SDS011;12459;42.646;23.292;2024-02-26T10:51:09;29.60;;;28.20;;
7585;SDS011;12459;42.646;23.292;2024-02-26T11:06:14;31.40;;;29.93;;
7585;SDS011;12459;42.646;23.292;2024-02-26T11:21:17;32.73;;;31.23;;
7585;SDS011;12459;42.646;23.292;2024-02-26T11:36:20;32.93;;;31.43;;
7585;SDS011;12459;42.646;23.292;2024-02-26T11:51:26;33.43;;;31.87;;
7585;SDS011;12459;42.646;23.292;2024-02-26T12:06:29;38.50;;;36.70;;
7585;SDS011;12459;42.646;23.292;2024-02-26T12:21:33;35.33;;;33.70;;
7585;SDS011;12459;42.646;23.292;2024-02-26T12:36:39;36.23;;;34.53;;
7585;SDS011;12459;42.646;23.292;2024-02-26T12:51:41;34.73;;;33.13;;
7585;SDS011;12459;42.646;23.292;2024-02-26T13:06:43;34.93;;;33.33;;
7585;SDS011;12459;42.646;23.292;2024-02-26T13:21:45;35.90;;;34.23;;
7585;SDS011;12459;42.646;23.292;2024-02-26T13:36:47;37.80;;;36.07;;
7585;SDS011;12459;42.646;23.292;2024-02-26T13:51:49;34.23;;;32.63;;
7585;SDS011;12459;42.646;23.292;2024-02-26T14:06:50;38.50;;;36.73;;
7585;SDS011;12459;42.646;23.292;2024-02-26T14:21:53;37.23;;;35.53;;
7585;SDS011;12459;42.646;23.292;2024-02-26T14:36:54;41.00;;;39.10;;
7585;SDS011;12459;42.646;23.292;2024-02-26T14:51:57;41.83;;;39.93;;
7585;SDS011;12459;42.646;23.292;2024-02-26T15:06:58;36.47;;;34.77;;
7585;SDS011;12459;42.646;23.292;2024-02-26T15:22:00;37.80;;;36.03;;
7585;SDS011;12459;42.646;23.292;2024-02-26T15:37:02;36.57;;;34.87;;
7585;SDS011;12459;42.646;23.292;2024-02-26T15:52:04;36.63;;;34.97;;
7585;SDS011;12459;42.646;23.292;2024-02-26T16:07:06;37.17;;;35.47;;
7585;SDS011;12459;42.646;23.292;2024-02-26T16:22:15;32.73;;;31.23;;
7585;SDS011;12459;42.646;23.292;2024-02-26T16:37:17;28.20;;;26.90;;
7585;SDS011;12459;42.646;23.292;2024-02-26T16:52:19;30.47;;;29.07;;
7585;SDS011;12459;42.646;23.292;2024-02-26T17:07:21;28.33;;;27.00;;
7585;SDS011;12459;42.646;23.292;2024-02-26T17:22:26;24.87;;;23.67;;
7585;SDS011;12459;42.646;23.292;2024-02-26T17:37:28;27.93;;;26.63;;
7585;SDS011;12459;42.646;23.292;2024-02-26T17:52:30;24.17;;;23.00;;
7585;SDS011;12459;42.646;23.292;2024-02-26T18:07:38;25.83;;;24.63;;
7585;SDS011;12459;42.646;23.292;2024-02-26T18:22:39;23.40;;;22.30;;
7585;SDS011;12459;42.646;23.292;2024-02-26T18:37:41;26.63;;;25.37;;
7585;SDS011;12459;42.646;23.292;2024-02-26T18:52:43;27.27;;;25.97;;
7585;SDS011;12459;42.646;23.292;2024-02-26T19:07:47;24.90;;;23.70;;
7585;SDS011;12459;42.646;23.292;2024-02-26T19:22:49;22.17;;;21.10;;
7585;SDS011;12459;42.646;23.292;2024-02-26T19:37:51;23.53;;;22.43;;
7585;SDS011;12459;42.646;23.292;2024-02-26T19:52:52;23.50;;;22.40;;
7585;SDS011;12459;42.646;23.292;2024-02-26T20:07:54;23.63;;;22.50;;
7585;SDS011;12459;42.646;23.292;2024-02-26T20:22:56;22.50;;;21.40;;
7585;SDS011;12459;42.646;23.292;2024-02-26T20:37:58;21.80;;;20.73;;
7585;SDS011;12459;42.646;23.292;2024-02-26T20:53:00;20.10;;;19.10;;
7585;SDS011;12459;42.646;23.292;2024-02-26T21:08:02;19.23;;;18.30;;
7585;SDS011;12459;42.646;23.292;2024-02-26T21:23:08;19.47;;;18.50;;
7585;SDS011;12459;42.646;23.292;2024-02-26T21:38:11;20.60;;;19.60;;
7585;SDS011;12459;42.646;23.292;2024-02-26T21:53:13;16.00;;;15.20;;
7585;SDS011;12459;42.646;23.292;2024-02-26T22:08:15;16.50;;;15.70;;
7585;SDS011;12459;42.646;23.292;2024-02-26T22:23:16;16.47;;;15.67;;
7585;SDS011;12459;42.646;23.292;2024-02-26T22:38:18;15.50;;;14.73;;
7585;SDS011;12459;42.646;23.292;2024-02-26T22:53:21;15.43;;;14.63;;
7585;SDS011;12459;42.646;23.292;2024-02-26T23:08:23;14.10;;;13.40;;
7585;SDS011;12459;42.646;23.292;2024-02-26T23:23:24;16.80;;;15.97;;
7585;SDS011;12459;42.646;23.292;2024-02-26T23:38:27;17.50;;;16.60;;
7585;SDS011;12459;42.646;23.292;2024-02-26T23:53:28;16.93;;;16.07;;
